sensor_id;sensor_type;location;lat;lon;timestamp;pressure;altitude;pressure_sealevel;temperature;humidity
55801;BME280;41730;51.960;20.158;2022-12-19T00:00:49;102403.07;;;-3.17;74.92
55801;BME280;41730;51.960;20.158;2022-12-19T00:03:20;102405.27;;;-3.22;74.91
55801;BME280;41730;51.960;20.158;2022-12-19T00:05:52;102393.14;;;-3.15;74.95
55801;BME280;41730;51.960;20.158;2022-12-19T00:08:24;102380.17;;;-3.05;74.39
55801;BME280;41730;51.960;20.158;2022-12-19T00:11:00;102377.86;;;-3.16;74.75
55801;BME280;41730;51.960;20.158;2022-12-19T00:13:32;102375.63;;;-3.17;74.31
55801;BME280;41730;51.960;20.158;2022-12-19T00:16:12;102375.02;;;-3.26;74.96
55801;BME280;41730;51.960;20.158;2022-12-19T00:18:48;102366.80;;;-3.24;75.34
55801;BME280;41730;51.960;20.158;2022-12-19T00:21:26;102366.50;;;-3.20;75.46
55801;BME280;41730;51.960;20.158;2022-12-19T00:23:58;102366.64;;;-3.22;75.37
55801;BME280;41730;51.960;20.158;2022-12-19T00:26:31;102372.04;;;-3.14;75.16
55801;BME280;41730;51.960;20.158;2022-12-19T00:29:05;102373.70;;;-3.20;75.27
55801;BME280;41730;51.960;20.158;2022-12-19T00:31:43;102370.81;;;-3.16;74.38
55801;BME280;41730;51.960;20.158;2022-12-19T00:34:14;102380.71;;;-3.23;74.89
55801;BME280;41730;51.960;20.158;2022-12-19T00:36:46;102385.22;;;-3.35;74.99
55801;BME280;41730;51.960;20.158;2022-12-19T00:39:17;102380.80;;;-3.32;75.51
55801;BME280;41730;51.960;20.158;2022-12-19T00:41:50;102379.46;;;-3.28;75.08
55801;BME280;41730;51.960;20.158;2022-12-19T00:44:22;102375.77;;;-3.37;74.87
55801;BME280;41730;51.960;20.158;2022-12-19T00:46:55;102379.30;;;-3.28;74.76
55801;BME280;41730;51.960;20.158;2022-12-19T00:49:27;102374.66;;;-3.28;74.61
55801;BME280;41730;51.960;20.158;2022-12-19T00:51:58;102372.91;;;-3.32;74.48
55801;BME280;41730;51.960;20.158;2022-12-19T00:54:30;102369.78;;;-3.36;74.36
55801;BME280;41730;51.960;20.158;2022-12-19T00:57:03;102369.92;;;-3.39;74.61
55801;BME280;41730;51.960;20.158;2022-12-19T00:59:35;102371.80;;;-3.40;74.91
55801;BME280;41730;51.960;20.158;2022-12-19T01:02:06;102377.47;;;-3.38;75.15
55801;BME280;41730;51.960;20.158;2022-12-19T01:04:38;102379.31;;;-3.43;74.85
55801;BME280;41730;51.960;20.158;2022-12-19T01:07:10;102382.74;;;-3.43;74.78
55801;BME280;41730;51.960;20.158;2022-12-19T01:09:42;102378.80;;;-3.43;75.11
55801;BME280;41730;51.960;20.158;2022-12-19T01:12:15;102364.87;;;-3.47;74.29
55801;BME280;41730;51.960;20.158;2022-12-19T01:15:05;102363.67;;;-3.47;74.42
55801;BME280;41730;51.960;20.158;2022-12-19T01:17:36;102368.52;;;-3.60;74.60
55801;BME280;41730;51.960;20.158;2022-12-19T01:20:14;102367.09;;;-3.64;74.64
55801;BME280;41730;51.960;20.158;2022-12-19T01:22:57;102363.73;;;-3.57;74.21
55801;BME280;41730;51.960;20.158;2022-12-19T01:25:29;102356.77;;;-3.69;74.98
55801;BME280;41730;51.960;20.158;2022-12-19T01:28:04;102351.93;;;-3.72;75.04
55801;BME280;41730;51.960;20.158;2022-12-19T01:30:38;102348.55;;;-3.67;74.16
55801;BME280;41730;51.960;20.158;2022-12-19T01:33:12;102344.55;;;-3.55;74.38
55801;BME280;41730;51.960;20.158;2022-12-19T01:35:45;102341.50;;;-3.69;74.45
55801;BME280;41730;51.960;20.158;2022-12-19T01:38:18;102335.85;;;-3.68;73.95
55801;BME280;41730;51.960;20.158;2022-12-19T01:40:55;102332.23;;;-3.86;74.39
55801;BME280;41730;51.960;20.158;2022-12-19T01:43:51;102323.82;;;-3.87;74.34
55801;BME280;41730;51.960;20.158;2022-12-19T01:46:27;102324.48;;;-3.90;74.73
55801;BME280;41730;51.960;20.158;2022-12-19T01:49:00;102324.93;;;-3.81;73.89
55801;BME280;41730;51.960;20.158;2022-12-19T01:51:36;102321.65;;;-3.82;74.09
55801;BME280;41730;51.960;20.158;2022-12-19T01:54:12;102321.39;;;-3.73;73.86
55801;BME280;41730;51.960;20.158;2022-12-19T01:56:49;102324.51;;;-3.72;73.44
55801;BME280;41730;51.960;20.158;2022-12-19T01:59:25;102318.18;;;-3.86;73.80
55801;BME280;41730;51.960;20.158;2022-12-19T02:02:03;102313.25;;;-3.82;73.73
55801;BME280;41730;51.960;20.158;2022-12-19T02:04:39;102304.31;;;-3.69;73.41
55801;BME280;41730;51.960;20.158;2022-12-19T02:07:11;102299.17;;;-3.69;73.29
55801;BME280;41730;51.960;20.158;2022-12-19T02:09:46;102299.52;;;-3.68;73.34
55801;BME280;41730;51.960;20.158;2022-12-19T02:12:27;102299.92;;;-3.61;72.57
55801;BME280;41730;51.960;20.158;2022-12-19T02:15:00;102300.36;;;-3.69;72.91
55801;BME280;41730;51.960;20.158;2022-12-19T02:17:37;102304.61;;;-3.72;73.36
55801;BME280;41730;51.960;20.158;2022-12-19T02:20:38;102311.55;;;-3.64;72.75
55801;BME280;41730;51.960;20.158;2022-12-19T02:26:47;102324.36;;;-3.86;73.71
55801;BME280;41730;51.960;20.158;2022-12-19T02:32:50;102320.73;;;-3.88;73.57
55801;BME280;41730;51.960;20.158;2022-12-19T02:35:34;102324.63;;;-3.93;73.71
55801;BME280;41730;51.960;20.158;2022-12-19T02:38:14;102319.34;;;-4.05;74.01
55801;BME280;41730;51.960;20.158;2022-12-19T02:40:55;102310.67;;;-4.14;74.08
55801;BME280;41730;51.960;20.158;2022-12-19T02:43:31;102310.10;;;-4.19;73.85
55801;BME280;41730;51.960;20.158;2022-12-19T02:46:02;102307.27;;;-4.27;74.02
55801;BME280;41730;51.960;20.158;2022-12-19T02:48:35;102300.20;;;-4.16;73.33
55801;BME280;41730;51.960;20.158;2022-12-19T02:51:07;102294.06;;;-4.14;73.43
55801;BME280;41730;51.960;20.158;2022-12-19T02:53:38;102288.25;;;-4.28;73.70
55801;BME280;41730;51.960;20.158;2022-12-19T02:56:23;102280.27;;;-4.50;74.28
55801;BME280;41730;51.960;20.158;2022-12-19T02:59:07;102278.02;;;-4.53;74.53
55801;BME280;41730;51.960;20.158;2022-12-19T03:01:49;102281.20;;;-4.58;74.54
55801;BME280;41730;51.960;20.158;2022-12-19T03:04:33;102269.67;;;-4.62;74.84
55801;BME280;41730;51.960;20.158;2022-12-19T03:07:11;102257.77;;;-4.69;74.85
55801;BME280;41730;51.960;20.158;2022-12-19T03:09:54;102250.12;;;-4.65;74.48
55801;BME280;41730;51.960;20.158;2022-12-19T03:12:37;102250.84;;;-4.75;74.49
55801;BME280;41730;51.960;20.158;2022-12-19T03:15:11;102244.44;;;-4.93;75.19
55801;BME280;41730;51.960;20.158;2022-12-19T03:17:43;102237.73;;;-4.95;75.30
55801;BME280;41730;51.960;20.158;2022-12-19T03:20:22;102236.06;;;-4.80;74.68
55801;BME280;41730;51.960;20.158;2022-12-19T03:22:56;102228.50;;;-4.56;73.47
55801;BME280;41730;51.960;20.158;2022-12-19T03:25:29;102230.34;;;-4.45;72.88
55801;BME280;41730;51.960;20.158;2022-12-19T03:28:08;102230.89;;;-4.56;72.88
55801;BME280;41730;51.960;20.158;2022-12-19T03:30:43;102232.47;;;-4.67;73.02
55801;BME280;41730;51.960;20.158;2022-12-19T03:33:17;102230.66;;;-4.75;73.23
55801;BME280;41730;51.960;20.158;2022-12-19T03:35:50;102229.73;;;-4.93;73.57
55801;BME280;41730;51.960;20.158;2022-12-19T03:38:23;102228.16;;;-4.96;73.48
55801;BME280;41730;51.960;20.158;2022-12-19T03:40:57;102224.86;;;-5.00;73.66
55801;BME280;41730;51.960;20.158;2022-12-19T03:43:30;102228.86;;;-5.06;73.57
55801;BME280;41730;51.960;20.158;2022-12-19T03:46:07;102233.12;;;-5.07;73.59
55801;BME280;41730;51.960;20.158;2022-12-19T03:48:45;102232.77;;;-5.08;73.53
55801;BME280;41730;51.960;20.158;2022-12-19T03:51:24;102233.16;;;-5.05;73.61
55801;BME280;41730;51.960;20.158;2022-12-19T03:54:02;102240.64;;;-5.09;73.57
55801;BME280;41730;51.960;20.158;2022-12-19T03:56:39;102232.17;;;-5.26;74.00
55801;BME280;41730;51.960;20.158;2022-12-19T03:59:17;102233.08;;;-5.34;74.32
55801;BME280;41730;51.960;20.158;2022-12-19T04:01:52;102232.24;;;-5.33;74.25
55801;BME280;41730;51.960;20.158;2022-12-19T04:04:25;102228.73;;;-5.16;73.62
55801;BME280;41730;51.960;20.158;2022-12-19T04:06:58;102221.30;;;-5.21;73.65
55801;BME280;41730;51.960;20.158;2022-12-19T04:09:31;102217.84;;;-5.24;73.82
55801;BME280;41730;51.960;20.158;2022-12-19T04:12:07;102210.98;;;-5.37;74.03
55801;BME280;41730;51.960;20.158;2022-12-19T04:14:40;102209.59;;;-5.49;74.85
55801;BME280;41730;51.960;20.158;2022-12-19T04:17:18;102208.00;;;-5.53;74.73
55801;BME280;41730;51.960;20.158;2022-12-19T04:19:54;102206.13;;;-5.52;74.82
55801;BME280;41730;51.960;20.158;2022-12-19T04:22:34;102205.09;;;-5.53;74.52
55801;BME280;41730;51.960;20.158;2022-12-19T04:25:09;102199.77;;;-5.43;74.06
55801;BME280;41730;51.960;20.158;2022-12-19T04:27:40;102200.06;;;-5.47;73.76
55801;BME280;41730;51.960;20.158;2022-12-19T04:30:17;102197.27;;;-5.51;73.72
55801;BME280;41730;51.960;20.158;2022-12-19T04:32:53;102197.89;;;-5.55;73.84
55801;BME280;41730;51.960;20.158;2022-12-19T04:35:26;102203.56;;;-5.73;74.11
55801;BME280;41730;51.960;20.158;2022-12-19T04:37:58;102199.39;;;-5.67;73.89
55801;BME280;41730;51.960;20.158;2022-12-19T04:40:30;102195.98;;;-5.67;73.87
55801;BME280;41730;51.960;20.158;2022-12-19T04:43:09;102195.65;;;-5.55;73.39
55801;BME280;41730;51.960;20.158;2022-12-19T04:45:42;102196.20;;;-5.53;73.05
55801;BME280;41730;51.960;20.158;2022-12-19T04:48:13;102204.89;;;-5.55;73.03
55801;BME280;41730;51.960;20.158;2022-12-19T04:50:45;102199.55;;;-5.47;72.88
55801;BME280;41730;51.960;20.158;2022-12-19T04:53:16;102197.79;;;-5.39;72.45
55801;BME280;41730;51.960;20.158;2022-12-19T04:55:48;102191.87;;;-5.45;72.54
55801;BME280;41730;51.960;20.158;2022-12-19T04:58:19;102186.24;;;-5.44;72.32
55801;BME280;41730;51.960;20.158;2022-12-19T05:00:51;102186.16;;;-5.50;72.18
55801;BME280;41730;51.960;20.158;2022-12-19T05:03:23;102182.89;;;-5.51;72.08
55801;BME280;41730;51.960;20.158;2022-12-19T05:05:54;102183.00;;;-5.55;72.38
55801;BME280;41730;51.960;20.158;2022-12-19T05:08:32;102187.81;;;-5.64;72.45
55801;BME280;41730;51.960;20.158;2022-12-19T05:11:06;102188.14;;;-5.77;72.55
55801;BME280;41730;51.960;20.158;2022-12-19T05:13:44;102183.11;;;-5.71;72.71
55801;BME280;41730;51.960;20.158;2022-12-19T05:16:16;102184.92;;;-5.74;72.41
55801;BME280;41730;51.960;20.158;2022-12-19T05:18:48;102181.45;;;-5.79;72.55
55801;BME280;41730;51.960;20.158;2022-12-19T05:21:20;102177.64;;;-5.83;72.60
55801;BME280;41730;51.960;20.158;2022-12-19T05:23:52;102179.14;;;-5.83;72.64
55801;BME280;41730;51.960;20.158;2022-12-19T05:26:24;102184.23;;;-5.87;72.92
55801;BME280;41730;51.960;20.158;2022-12-19T05:28:55;102180.49;;;-5.97;73.07
55801;BME280;41730;51.960;20.158;2022-12-19T05:31:27;102185.11;;;-6.07;72.87
55801;BME280;41730;51.960;20.158;2022-12-19T05:33:59;102184.17;;;-6.11;72.68
55801;BME280;41730;51.960;20.158;2022-12-19T05:36:30;102181.19;;;-6.06;72.80
55801;BME280;41730;51.960;20.158;2022-12-19T05:39:02;102182.08;;;-6.04;73.03
55801;BME280;41730;51.960;20.158;2022-12-19T05:41:33;102187.63;;;-5.99;72.47
55801;BME280;41730;51.960;20.158;2022-12-19T05:44:05;102186.29;;;-5.97;72.28
55801;BME280;41730;51.960;20.158;2022-12-19T05:46:36;102183.14;;;-6.02;72.36
55801;BME280;41730;51.960;20.158;2022-12-19T05:49:08;102181.38;;;-6.15;72.24
55801;BME280;41730;51.960;20.158;2022-12-19T05:51:40;102177.53;;;-6.30;72.48
55801;BME280;41730;51.960;20.158;2022-12-19T05:54:11;102168.23;;;-6.34;72.46
55801;BME280;41730;51.960;20.158;2022-12-19T05:56:43;102164.96;;;-6.36;71.59
55801;BME280;41730;51.960;20.158;2022-12-19T05:59:15;102159.61;;;-6.29;71.53
55801;BME280;41730;51.960;20.158;2022-12-19T06:01:46;102162.67;;;-6.30;71.39
55801;BME280;41730;51.960;20.158;2022-12-19T06:04:18;102158.36;;;-6.42;71.55
55801;BME280;41730;51.960;20.158;2022-12-19T06:06:49;102161.94;;;-6.42;71.05
55801;BME280;41730;51.960;20.158;2022-12-19T06:09:21;102157.56;;;-6.48;70.88
55801;BME280;41730;51.960;20.158;2022-12-19T06:11:53;102148.45;;;-6.61;70.88
55801;BME280;41730;51.960;20.158;2022-12-19T06:14:25;102147.20;;;-6.73;70.95
55801;BME280;41730;51.960;20.158;2022-12-19T06:16:56;102144.48;;;-6.81;70.62
55801;BME280;41730;51.960;20.158;2022-12-19T06:19:28;102147.86;;;-6.82;70.47
55801;BME280;41730;51.960;20.158;2022-12-19T06:22:00;102142.98;;;-6.87;70.11
55801;BME280;41730;51.960;20.158;2022-12-19T06:24:31;102140.64;;;-6.94;70.02
55801;BME280;41730;51.960;20.158;2022-12-19T06:27:03;102142.02;;;-6.92;69.62
55801;BME280;41730;51.960;20.158;2022-12-19T06:29:34;102139.09;;;-6.87;69.75
55801;BME280;41730;51.960;20.158;2022-12-19T06:32:06;102138.92;;;-6.86;69.62
55801;BME280;41730;51.960;20.158;2022-12-19T06:34:39;102140.27;;;-6.86;69.32
55801;BME280;41730;51.960;20.158;2022-12-19T06:37:31;102143.23;;;-6.84;69.33
55801;BME280;41730;51.960;20.158;2022-12-19T06:40:09;102144.35;;;-6.96;69.76
55801;BME280;41730;51.960;20.158;2022-12-19T06:43:00;102144.63;;;-6.99;70.10
55801;BME280;41730;51.960;20.158;2022-12-19T06:45:32;102145.37;;;-7.04;70.04
55801;BME280;41730;51.960;20.158;2022-12-19T06:48:04;102149.51;;;-7.02;70.24
55801;BME280;41730;51.960;20.158;2022-12-19T06:50:36;102144.04;;;-7.02;70.36
55801;BME280;41730;51.960;20.158;2022-12-19T06:53:08;102143.34;;;-7.04;70.05
55801;BME280;41730;51.960;20.158;2022-12-19T06:55:40;102142.25;;;-7.15;70.38
55801;BME280;41730;51.960;20.158;2022-12-19T06:58:11;102146.84;;;-7.16;70.52
55801;BME280;41730;51.960;20.158;2022-12-19T07:00:43;102148.80;;;-7.20;70.39
55801;BME280;41730;51.960;20.158;2022-12-19T07:03:17;102144.06;;;-7.18;70.73
55801;BME280;41730;51.960;20.158;2022-12-19T07:05:49;102144.09;;;-7.24;71.20
55801;BME280;41730;51.960;20.158;2022-12-19T07:08:21;102142.55;;;-7.25;71.39
55801;BME280;41730;51.960;20.158;2022-12-19T07:10:52;102145.89;;;-7.20;70.56
55801;BME280;41730;51.960;20.158;2022-12-19T07:13:24;102146.90;;;-7.04;70.43
55801;BME280;41730;51.960;20.158;2022-12-19T07:15:57;102147.52;;;-6.99;70.33
55801;BME280;41730;51.960;20.158;2022-12-19T07:18:35;102153.13;;;-7.00;70.01
55801;BME280;41730;51.960;20.158;2022-12-19T07:21:08;102156.98;;;-7.03;70.70
55801;BME280;41730;51.960;20.158;2022-12-19T07:23:41;102152.37;;;-6.95;70.68
55801;BME280;41730;51.960;20.158;2022-12-19T07:26:14;102149.77;;;-6.81;70.85
55801;BME280;41730;51.960;20.158;2022-12-19T07:28:45;102154.35;;;-6.65;70.94
55801;BME280;41730;51.960;20.158;2022-12-19T07:31:17;102149.66;;;-6.51;70.48
55801;BME280;41730;51.960;20.158;2022-12-19T07:33:49;102147.56;;;-6.44;70.80
55801;BME280;41730;51.960;20.158;2022-12-19T07:36:20;102152.70;;;-6.23;71.19
55801;BME280;41730;51.960;20.158;2022-12-19T07:38:52;102151.71;;;-6.02;71.28
55801;BME280;41730;51.960;20.158;2022-12-19T07:41:23;102150.23;;;-5.86;71.58
55801;BME280;41730;51.960;20.158;2022-12-19T07:43:55;102156.17;;;-5.78;71.75
55801;BME280;41730;51.960;20.158;2022-12-19T07:46:28;102153.05;;;-5.70;71.93
55801;BME280;41730;51.960;20.158;2022-12-19T07:49:00;102143.34;;;-5.57;71.26
55801;BME280;41730;51.960;20.158;2022-12-19T07:51:32;102144.98;;;-5.60;71.14
55801;BME280;41730;51.960;20.158;2022-12-19T07:54:04;102147.17;;;-5.74;70.46
55801;BME280;41730;51.960;20.158;2022-12-19T07:56:35;102147.48;;;-5.87;70.93
55801;BME280;41730;51.960;20.158;2022-12-19T07:59:07;102147.73;;;-5.94;70.97
55801;BME280;41730;51.960;20.158;2022-12-19T08:01:38;102145.46;;;-5.85;70.99
55801;BME280;41730;51.960;20.158;2022-12-19T08:04:10;102137.79;;;-5.84;70.66
55801;BME280;41730;51.960;20.158;2022-12-19T08:06:42;102140.45;;;-5.89;71.13
55801;BME280;41730;51.960;20.158;2022-12-19T08:09:15;102142.06;;;-5.74;70.67
55801;BME280;41730;51.960;20.158;2022-12-19T08:11:46;102138.25;;;-5.77;70.34
55801;BME280;41730;51.960;20.158;2022-12-19T08:14:18;102138.80;;;-5.86;71.26
55801;BME280;41730;51.960;20.158;2022-12-19T08:16:49;102136.77;;;-5.72;70.73
55801;BME280;41730;51.960;20.158;2022-12-19T08:19:41;102132.43;;;-5.66;70.73
55801;BME280;41730;51.960;20.158;2022-12-19T08:22:13;102127.60;;;-5.69;70.80
55801;BME280;41730;51.960;20.158;2022-12-19T08:24:45;102126.77;;;-5.56;70.41
55801;BME280;41730;51.960;20.158;2022-12-19T08:27:17;102124.30;;;-5.49;70.37
55801;BME280;41730;51.960;20.158;2022-12-19T08:29:49;102125.52;;;-5.60;70.27
55801;BME280;41730;51.960;20.158;2022-12-19T08:32:21;102114.39;;;-5.61;70.44
55801;BME280;41730;51.960;20.158;2022-12-19T08:34:54;102107.30;;;-5.79;70.22
55801;BME280;41730;51.960;20.158;2022-12-19T08:37:26;102102.98;;;-5.94;70.68
55801;BME280;41730;51.960;20.158;2022-12-19T08:39:58;102102.48;;;-5.93;70.74
55801;BME280;41730;51.960;20.158;2022-12-19T08:42:29;102102.30;;;-5.95;71.02
55801;BME280;41730;51.960;20.158;2022-12-19T08:45:04;102103.27;;;-5.87;70.98
55801;BME280;41730;51.960;20.158;2022-12-19T08:47:36;102098.12;;;-5.87;71.22
55801;BME280;41730;51.960;20.158;2022-12-19T08:50:08;102094.86;;;-5.87;71.34
55801;BME280;41730;51.960;20.158;2022-12-19T08:52:40;102079.91;;;-5.70;71.29
55801;BME280;41730;51.960;20.158;2022-12-19T08:55:12;102070.91;;;-5.66;70.97
55801;BME280;41730;51.960;20.158;2022-12-19T08:57:44;102063.70;;;-5.56;70.79
55801;BME280;41730;51.960;20.158;2022-12-19T09:00:17;102059.92;;;-5.45;70.41
55801;BME280;41730;51.960;20.158;2022-12-19T09:02:50;102068.34;;;-5.54;70.95
55801;BME280;41730;51.960;20.158;2022-12-19T09:05:21;102071.19;;;-5.58;71.60
55801;BME280;41730;51.960;20.158;2022-12-19T09:08:13;102065.26;;;-5.42;70.97
55801;BME280;41730;51.960;20.158;2022-12-19T09:10:44;102061.39;;;-5.37;70.82
55801;BME280;41730;51.960;20.158;2022-12-19T09:13:16;102059.05;;;-5.33;71.40
55801;BME280;41730;51.960;20.158;2022-12-19T09:15:47;102051.08;;;-5.28;71.34
55801;BME280;41730;51.960;20.158;2022-12-19T09:18:19;102041.60;;;-5.19;71.13
55801;BME280;41730;51.960;20.158;2022-12-19T09:20:55;102036.37;;;-5.27;71.27
55801;BME280;41730;51.960;20.158;2022-12-19T09:23:28;102028.90;;;-5.23;71.55
55801;BME280;41730;51.960;20.158;2022-12-19T09:26:05;102030.99;;;-5.20;71.55
55801;BME280;41730;51.960;20.158;2022-12-19T09:28:38;102029.66;;;-5.16;71.59
55801;BME280;41730;51.960;20.158;2022-12-19T09:31:13;102027.36;;;-5.08;71.65
55801;BME280;41730;51.960;20.158;2022-12-19T09:33:46;102030.02;;;-4.99;71.36
55801;BME280;41730;51.960;20.158;2022-12-19T09:36:19;102030.50;;;-4.86;71.27
55801;BME280;41730;51.960;20.158;2022-12-19T09:38:53;102029.01;;;-4.80;71.09
55801;BME280;41730;51.960;20.158;2022-12-19T09:41:39;102031.96;;;-4.76;70.99
55801;BME280;41730;51.960;20.158;2022-12-19T09:44:26;102038.01;;;-4.86;71.56
55801;BME280;41730;51.960;20.158;2022-12-19T09:47:02;102030.40;;;-4.95;71.97
55801;BME280;41730;51.960;20.158;2022-12-19T09:49:38;102016.98;;;-4.86;71.59
55801;BME280;41730;51.960;20.158;2022-12-19T09:52:14;102010.64;;;-4.86;71.87
55801;BME280;41730;51.960;20.158;2022-12-19T09:54:50;102008.22;;;-4.89;71.78
55801;BME280;41730;51.960;20.158;2022-12-19T09:57:28;102003.38;;;-4.95;72.14
55801;BME280;41730;51.960;20.158;2022-12-19T10:00:09;101990.41;;;-4.91;72.20
55801;BME280;41730;51.960;20.158;2022-12-19T10:02:45;101977.70;;;-4.78;71.60
55801;BME280;41730;51.960;20.158;2022-12-19T10:05:23;101974.27;;;-4.78;71.56
55801;BME280;41730;51.960;20.158;2022-12-19T10:08:20;101970.55;;;-4.73;71.47
55801;BME280;41730;51.960;20.158;2022-12-19T10:11:03;101974.87;;;-4.69;71.47
55801;BME280;41730;51.960;20.158;2022-12-19T10:14:06;101973.35;;;-4.65;71.61
55801;BME280;41730;51.960;20.158;2022-12-19T10:16:50;101964.58;;;-4.72;71.47
55801;BME280;41730;51.960;20.158;2022-12-19T10:19:56;101963.40;;;-4.70;71.15
55801;BME280;41730;51.960;20.158;2022-12-19T10:22:39;101962.49;;;-4.75;71.36
55801;BME280;41730;51.960;20.158;2022-12-19T10:25:29;101954.28;;;-4.77;71.48
55801;BME280;41730;51.960;20.158;2022-12-19T10:28:11;101943.05;;;-4.66;71.46
55801;BME280;41730;51.960;20.158;2022-12-19T10:30:52;101936.23;;;-4.64;71.28
55801;BME280;41730;51.960;20.158;2022-12-19T10:33:44;101937.88;;;-4.73;71.70
55801;BME280;41730;51.960;20.158;2022-12-19T10:36:17;101932.23;;;-4.73;71.68
55801;BME280;41730;51.960;20.158;2022-12-19T10:38:53;101919.74;;;-4.72;71.76
55801;BME280;41730;51.960;20.158;2022-12-19T10:41:29;101908.03;;;-4.58;71.39
55801;BME280;41730;51.960;20.158;2022-12-19T10:44:03;101907.53;;;-4.56;71.44
55801;BME280;41730;51.960;20.158;2022-12-19T10:46:39;101899.17;;;-4.52;71.36
55801;BME280;41730;51.960;20.158;2022-12-19T10:49:17;101891.02;;;-4.41;70.94
55801;BME280;41730;51.960;20.158;2022-12-19T10:51:58;101887.14;;;-4.32;70.85
55801;BME280;41730;51.960;20.158;2022-12-19T10:54:40;101880.63;;;-4.30;70.86
55801;BME280;41730;51.960;20.158;2022-12-19T10:57:23;101877.63;;;-4.16;70.73
55801;BME280;41730;51.960;20.158;2022-12-19T11:00:00;101869.38;;;-4.23;70.49
55801;BME280;41730;51.960;20.158;2022-12-19T11:02:38;101857.31;;;-4.37;71.26
55801;BME280;41730;51.960;20.158;2022-12-19T11:05:30;101853.73;;;-4.34;71.10
55801;BME280;41730;51.960;20.158;2022-12-19T11:08:12;101841.77;;;-4.27;71.23
55801;BME280;41730;51.960;20.158;2022-12-19T11:10:48;101831.99;;;-4.35;71.54
55801;BME280;41730;51.960;20.158;2022-12-19T11:13:45;101833.48;;;-4.39;71.58
55801;BME280;41730;51.960;20.158;2022-12-19T11:16:38;101836.45;;;-4.32;71.43
55801;BME280;41730;51.960;20.158;2022-12-19T11:19:32;101825.34;;;-4.28;71.85
55801;BME280;41730;51.960;20.158;2022-12-19T11:22:25;101810.65;;;-4.17;71.37
55801;BME280;41730;51.960;20.158;2022-12-19T11:25:21;101807.73;;;-4.20;71.44
55801;BME280;41730;51.960;20.158;2022-12-19T11:28:19;101803.45;;;-4.23;71.54
55801;BME280;41730;51.960;20.158;2022-12-19T11:31:19;101800.01;;;-4.24;71.60
55801;BME280;41730;51.960;20.158;2022-12-19T11:34:17;101793.20;;;-4.12;71.69
55801;BME280;41730;51.960;20.158;2022-12-19T11:36:53;101788.08;;;-4.07;71.24
55801;BME280;41730;51.960;20.158;2022-12-19T11:39:34;101787.21;;;-4.11;71.35
55801;BME280;41730;51.960;20.158;2022-12-19T11:42:13;101777.77;;;-4.13;71.70
55801;BME280;41730;51.960;20.158;2022-12-19T11:44:52;101775.38;;;-4.15;71.43
55801;BME280;41730;51.960;20.158;2022-12-19T11:47:33;101768.71;;;-4.10;71.47
55801;BME280;41730;51.960;20.158;2022-12-19T11:50:14;101768.73;;;-4.05;71.59
55801;BME280;41730;51.960;20.158;2022-12-19T11:52:51;101765.46;;;-4.10;71.60
55801;BME280;41730;51.960;20.158;2022-12-19T11:55:45;101758.79;;;-4.08;71.77
55801;BME280;41730;51.960;20.158;2022-12-19T11:58:21;101752.98;;;-4.02;71.93
55801;BME280;41730;51.960;20.158;2022-12-19T12:00:58;101755.06;;;-3.85;71.61
55801;BME280;41730;51.960;20.158;2022-12-19T12:03:45;101771.18;;;-3.76;70.82
55801;BME280;41730;51.960;20.158;2022-12-19T12:06:35;101756.09;;;-3.78;71.07
55801;BME280;41730;51.960;20.158;2022-12-19T12:09:20;101746.67;;;-3.78;70.96
55801;BME280;41730;51.960;20.158;2022-12-19T12:12:23;101738.95;;;-3.81;71.50
55801;BME280;41730;51.960;20.158;2022-12-19T12:15:30;101722.34;;;-3.69;71.27
55801;BME280;41730;51.960;20.158;2022-12-19T12:18:39;101719.42;;;-3.69;70.92
55801;BME280;41730;51.960;20.158;2022-12-19T12:21:36;101723.38;;;-3.73;70.92
55801;BME280;41730;51.960;20.158;2022-12-19T12:24:42;101730.22;;;-3.67;70.68
55801;BME280;41730;51.960;20.158;2022-12-19T12:27:44;101720.28;;;-3.59;70.93
55801;BME280;41730;51.960;20.158;2022-12-19T12:30:47;101709.30;;;-3.63;70.60
55801;BME280;41730;51.960;20.158;2022-12-19T12:33:54;101712.23;;;-3.55;70.68
55801;BME280;41730;51.960;20.158;2022-12-19T12:36:55;101714.27;;;-3.50;70.99
55801;BME280;41730;51.960;20.158;2022-12-19T12:40:02;101710.51;;;-3.57;70.99
55801;BME280;41730;51.960;20.158;2022-12-19T12:42:58;101702.29;;;-3.64;70.95
55801;BME280;41730;51.960;20.158;2022-12-19T12:45:37;101702.12;;;-3.70;71.14
55801;BME280;41730;51.960;20.158;2022-12-19T12:48:16;101693.02;;;-3.75;71.74
55801;BME280;41730;51.960;20.158;2022-12-19T12:50:53;101702.29;;;-3.72;71.93
55801;BME280;41730;51.960;20.158;2022-12-19T12:53:28;101699.37;;;-3.65;72.04
55801;BME280;41730;51.960;20.158;2022-12-19T12:56:04;101689.09;;;-3.61;71.28
55801;BME280;41730;51.960;20.158;2022-12-19T12:59:04;101688.05;;;-3.57;71.44
55801;BME280;41730;51.960;20.158;2022-12-19T13:01:38;101683.60;;;-3.61;72.21
55801;BME280;41730;51.960;20.158;2022-12-19T13:04:23;101676.39;;;-3.57;71.59
55801;BME280;41730;51.960;20.158;2022-12-19T13:10:03;101663.52;;;-3.50;71.75
55801;BME280;41730;51.960;20.158;2022-12-19T13:12:53;101665.23;;;-3.45;71.14
55801;BME280;41730;51.960;20.158;2022-12-19T13:15:40;101660.24;;;-3.37;70.98
55801;BME280;41730;51.960;20.158;2022-12-19T13:18:30;101651.86;;;-3.45;71.22
55801;BME280;41730;51.960;20.158;2022-12-19T13:21:05;101642.45;;;-3.52;71.93
55801;BME280;41730;51.960;20.158;2022-12-19T13:23:46;101641.91;;;-3.45;70.97
55801;BME280;41730;51.960;20.158;2022-12-19T13:26:47;101640.73;;;-3.50;71.87
55801;BME280;41730;51.960;20.158;2022-12-19T13:29:55;101637.63;;;-3.49;71.58
55801;BME280;41730;51.960;20.158;2022-12-19T13:32:31;101640.70;;;-3.41;71.76
55801;BME280;41730;51.960;20.158;2022-12-19T13:38:20;101637.96;;;-3.39;71.63
55801;BME280;41730;51.960;20.158;2022-12-19T13:41:26;101635.91;;;-3.44;71.56
55801;BME280;41730;51.960;20.158;2022-12-19T13:44:19;101632.16;;;-3.54;71.95
55801;BME280;41730;51.960;20.158;2022-12-19T13:46:53;101628.91;;;-3.61;72.00